createdAt,value
2023-12-30T00:00:53.854Z,22.00
2023-12-30T00:01:53.806Z,22.00
2023-12-30T00:02:53.828Z,21.99
2023-12-30T00:03:54.013Z,21.99
2023-12-30T00:04:53.980Z,22.00
2023-12-30T00:05:54.123Z,21.99
2023-12-30T00:06:54.148Z,22.00
2023-12-30T00:07:54.176Z,21.99
2023-12-30T00:08:54.260Z,21.99
2023-12-30T00:09:54.335Z,21.99
2023-12-30T00:10:54.382Z,21.99
2023-12-30T00:11:54.404Z,22.00
2023-12-30T00:12:54.522Z,21.99
2023-12-30T00:13:54.587Z,21.99
2023-12-30T00:14:54.616Z,21.99
2023-12-30T00:15:54.740Z,22.00
2023-12-30T00:16:54.745Z,21.99
2023-12-30T00:17:54.913Z,21.99
2023-12-30T00:18:55.038Z,21.99
2023-12-30T00:19:56.346Z,21.99
2023-12-30T00:20:55.104Z,21.99
2023-12-30T00:21:55.214Z,22.00
2023-12-30T00:22:55.240Z,22.00
2023-12-30T00:23:55.346Z,22.00
2023-12-30T00:24:55.386Z,22.00
2023-12-30T00:25:55.438Z,21.99
2023-12-30T00:26:55.511Z,21.99
2023-12-30T00:27:55.573Z,21.99
2023-12-30T00:28:55.821Z,22.00
2023-12-30T00:29:55.663Z,21.99
2023-12-30T00:30:55.783Z,21.99
2023-12-30T00:31:55.780Z,21.99
2023-12-30T00:32:55.982Z,21.99
2023-12-30T00:33:56.078Z,21.99
2023-12-30T00:34:55.996Z,21.99
2023-12-30T00:35:56.046Z,21.99
2023-12-30T00:36:56.117Z,21.99
2023-12-30T00:37:56.160Z,21.99
2023-12-30T00:38:56.275Z,21.99
2023-12-30T00:39:56.325Z,22.00
2023-12-30T00:40:56.350Z,21.98
2023-12-30T00:41:56.407Z,22.00
2023-12-30T00:42:56.513Z,21.99
2023-12-30T00:43:56.580Z,21.99
2023-12-30T00:44:56.599Z,21.99
2023-12-30T00:45:56.683Z,21.99
2023-12-30T00:46:56.709Z,21.99
2023-12-30T00:47:56.796Z,21.99
2023-12-30T00:48:58.205Z,21.98
2023-12-30T00:49:56.957Z,21.99
2023-12-30T00:50:56.955Z,21.99
2023-12-30T00:51:57.048Z,21.99
2023-12-30T00:52:57.081Z,21.98
2023-12-30T00:53:57.193Z,21.99
2023-12-30T00:54:57.255Z,21.99
2023-12-30T00:55:57.284Z,21.99
2023-12-30T00:56:57.318Z,21.98
2023-12-30T00:57:57.450Z,21.99
2023-12-30T00:58:57.460Z,21.99
2023-12-30T00:59:57.548Z,21.99
2023-12-30T01:00:57.683Z,21.99
2023-12-30T01:01:57.757Z,21.99
2023-12-30T01:02:57.735Z,21.99
2023-12-30T01:03:57.889Z,21.98
2023-12-30T01:04:57.878Z,21.98
2023-12-30T01:05:57.884Z,21.98
2023-12-30T01:06:57.978Z,21.98
2023-12-30T01:07:58.067Z,21.98
2023-12-30T01:08:58.097Z,21.99
2023-12-30T01:09:58.160Z,21.98
2023-12-30T01:10:58.222Z,21.98
2023-12-30T01:11:58.259Z,21.98
2023-12-30T01:12:58.449Z,21.98
2023-12-30T01:13:58.430Z,21.98
2023-12-30T01:14:58.477Z,21.98
2023-12-30T01:15:58.577Z,21.99
2023-12-30T01:16:58.619Z,21.99
2023-12-30T01:17:58.799Z,21.99
2023-12-30T01:18:58.814Z,21.98
2023-12-30T01:19:58.821Z,21.98
2023-12-30T01:20:58.878Z,21.98
2023-12-30T01:21:59.030Z,21.98
2023-12-30T01:22:59.060Z,21.97
2023-12-30T01:23:59.086Z,21.98
2023-12-30T01:24:59.178Z,21.98
2023-12-30T01:25:59.215Z,21.98
2023-12-30T01:26:59.271Z,21.98
2023-12-30T01:27:59.390Z,21.98
2023-12-30T01:28:59.407Z,21.98
2023-12-30T01:29:59.454Z,21.98
2023-12-30T01:30:59.607Z,21.98
2023-12-30T01:31:59.580Z,21.98
2023-12-30T01:32:59.860Z,21.97
2023-12-30T01:33:59.862Z,21.99
2023-12-30T01:34:59.804Z,21.97
2023-12-30T01:35:59.853Z,21.98
2023-12-30T01:36:59.954Z,21.98
2023-12-30T01:38:02.330Z,21.98
2023-12-30T01:39:00.026Z,21.97
2023-12-30T01:40:00.029Z,21.98
2023-12-30T01:40:59.993Z,21.98
2023-12-30T01:42:00.015Z,21.98
2023-12-30T01:43:00.444Z,21.98
2023-12-30T01:44:00.014Z,21.98
2023-12-30T01:44:59.999Z,21.98
2023-12-30T01:46:00.005Z,21.98
2023-12-30T01:46:59.993Z,21.98
2023-12-30T01:48:00.135Z,21.98
2023-12-30T01:49:00.126Z,21.98
2023-12-30T01:50:00.011Z,21.98
2023-12-30T01:51:00.025Z,21.98
2023-12-30T01:52:00.060Z,21.97
2023-12-30T01:53:00.152Z,21.98
2023-12-30T01:54:00.074Z,21.98
2023-12-30T01:55:00.042Z,21.98
2023-12-30T01:56:00.006Z,21.97
2023-12-30T01:57:00.013Z,21.98
2023-12-30T01:58:00.033Z,21.97
2023-12-30T01:59:00.023Z,21.98
2023-12-30T02:00:00.211Z,21.97
2023-12-30T02:01:00.107Z,21.97
2023-12-30T02:02:00.169Z,21.97
2023-12-30T02:03:00.398Z,21.98
2023-12-30T02:04:00.120Z,21.97
2023-12-30T02:05:00.067Z,21.97
2023-12-30T02:06:00.073Z,21.98
2023-12-30T02:07:00.061Z,21.97
2023-12-30T02:08:00.032Z,21.97
2023-12-30T02:09:00.077Z,21.97
2023-12-30T02:10:00.070Z,21.96
2023-12-30T02:11:00.095Z,21.97
2023-12-30T02:12:00.222Z,21.97
2023-12-30T02:13:00.711Z,21.97
2023-12-30T02:14:00.308Z,21.97
2023-12-30T02:15:00.337Z,21.97
2023-12-30T02:16:00.460Z,21.97
2023-12-30T02:17:00.482Z,21.97
2023-12-30T02:18:00.605Z,21.97
2023-12-30T02:19:00.806Z,21.97
2023-12-30T02:20:00.808Z,21.97
2023-12-30T02:21:00.729Z,21.97
2023-12-30T02:22:00.806Z,21.97
2023-12-30T02:23:01.209Z,21.96
2023-12-30T02:24:00.911Z,21.97
2023-12-30T02:25:01.099Z,21.96
2023-12-30T02:26:01.042Z,21.97
2023-12-30T02:27:01.105Z,21.96
2023-12-30T02:28:01.247Z,21.96
2023-12-30T02:29:01.293Z,21.97
2023-12-30T02:30:01.308Z,21.97
2023-12-30T02:31:01.408Z,21.97
2023-12-30T02:32:01.445Z,21.97
2023-12-30T02:33:01.892Z,21.97
2023-12-30T02:34:01.599Z,21.96
2023-12-30T02:35:01.724Z,21.97
2023-12-30T02:36:01.705Z,21.97
2023-12-30T02:37:01.777Z,21.97
2023-12-30T02:38:01.902Z,21.96
2023-12-30T02:39:01.882Z,21.97
2023-12-30T02:40:02.019Z,21.97
2023-12-30T02:41:02.035Z,21.97
2023-12-30T02:42:02.082Z,21.96
2023-12-30T02:43:02.333Z,21.97
2023-12-30T02:44:02.230Z,21.97
2023-12-30T02:45:02.300Z,21.96
2023-12-30T02:46:02.388Z,21.96
2023-12-30T02:47:02.433Z,21.96
2023-12-30T02:48:02.615Z,21.96
2023-12-30T02:49:02.625Z,21.96
2023-12-30T02:50:02.694Z,21.96
2023-12-30T02:51:02.732Z,21.96
2023-12-30T02:52:02.814Z,21.96
2023-12-30T02:53:03.077Z,21.97
2023-12-30T02:54:02.931Z,21.96
2023-12-30T02:55:03.040Z,21.96
2023-12-30T02:56:03.065Z,21.96
2023-12-30T02:57:03.146Z,21.96
2023-12-30T02:58:03.240Z,21.96
2023-12-30T02:59:03.278Z,21.96
2023-12-30T03:00:03.345Z,21.96
2023-12-30T03:01:03.460Z,21.96
2023-12-30T03:02:03.580Z,21.96
2023-12-30T03:03:03.787Z,21.96
2023-12-30T03:04:03.720Z,21.96
2023-12-30T03:05:03.919Z,21.96
2023-12-30T03:06:03.827Z,21.97
2023-12-30T03:07:03.998Z,21.96
2023-12-30T03:08:03.897Z,21.97
2023-12-30T03:09:03.989Z,21.96
2023-12-30T03:10:04.278Z,21.97
2023-12-30T03:11:04.165Z,21.97
2023-12-30T03:12:04.183Z,21.96
2023-12-30T03:13:04.685Z,21.96
2023-12-30T03:14:04.341Z,21.96
2023-12-30T03:15:04.390Z,21.96
2023-12-30T03:16:04.523Z,21.96
2023-12-30T03:17:04.534Z,21.96
2023-12-30T03:18:04.755Z,21.96
2023-12-30T03:19:04.916Z,21.96
2023-12-30T03:20:04.772Z,21.96
2023-12-30T03:21:04.778Z,21.96
2023-12-30T03:22:04.881Z,21.95
2023-12-30T03:23:05.075Z,21.96
2023-12-30T03:24:04.992Z,21.96
2023-12-30T03:25:05.083Z,21.96
2023-12-30T03:26:05.135Z,21.96
2023-12-30T03:27:05.200Z,21.95
2023-12-30T03:28:05.256Z,21.96
2023-12-30T03:29:05.306Z,21.96
2023-12-30T03:30:05.475Z,21.96
2023-12-30T03:31:05.590Z,21.96
2023-12-30T03:32:05.515Z,21.95
2023-12-30T03:33:05.932Z,21.96
2023-12-30T03:34:05.792Z,21.95
2023-12-30T03:35:05.758Z,21.96
2023-12-30T03:36:05.781Z,21.96
2023-12-30T03:37:05.870Z,21.96
2023-12-30T03:38:05.910Z,21.95
2023-12-30T03:39:05.983Z,21.96
2023-12-30T03:40:06.097Z,21.96
2023-12-30T03:41:06.100Z,21.95
2023-12-30T03:42:06.188Z,21.96
2023-12-30T03:43:06.553Z,21.95
2023-12-30T03:44:06.334Z,21.96
2023-12-30T03:45:06.364Z,21.96
2023-12-30T03:46:06.450Z,21.96
2023-12-30T03:47:06.519Z,21.96
2023-12-30T03:48:06.618Z,21.95
2023-12-30T03:49:06.754Z,21.95
2023-12-30T03:50:06.786Z,21.95
2023-12-30T03:51:06.825Z,21.94
2023-12-30T03:52:06.840Z,21.95
2023-12-30T03:53:06.923Z,21.95
2023-12-30T03:54:06.999Z,21.96
2023-12-30T03:55:07.074Z,21.95
2023-12-30T03:56:07.101Z,21.95
2023-12-30T03:57:07.175Z,21.95
2023-12-30T03:58:07.267Z,21.95
2023-12-30T03:59:07.312Z,21.95
2023-12-30T04:00:07.401Z,21.95
2023-12-30T04:01:07.629Z,21.95
2023-12-30T04:02:07.522Z,21.95
2023-12-30T04:03:07.648Z,21.95
2023-12-30T04:04:07.686Z,21.95
2023-12-30T04:05:07.783Z,21.94
2023-12-30T04:06:07.812Z,21.95
2023-12-30T04:07:07.916Z,21.95
2023-12-30T04:08:07.949Z,21.95
2023-12-30T04:09:08.006Z,21.95
2023-12-30T04:10:08.144Z,21.94
2023-12-30T04:11:08.212Z,21.95
2023-12-30T04:12:08.217Z,21.95
2023-12-30T04:13:08.328Z,21.95
2023-12-30T04:14:08.349Z,21.95
2023-12-30T04:15:08.433Z,21.95
2023-12-30T04:16:08.572Z,21.95
2023-12-30T04:17:08.578Z,21.94
2023-12-30T04:18:08.788Z,21.95
2023-12-30T04:19:08.864Z,21.95
2023-12-30T04:20:08.791Z,21.95
2023-12-30T04:21:08.822Z,21.95
2023-12-30T04:22:08.889Z,21.95
2023-12-30T04:23:08.950Z,21.95
2023-12-30T04:24:09.021Z,21.95
2023-12-30T04:25:09.149Z,21.94
2023-12-30T04:26:09.155Z,21.94
2023-12-30T04:27:09.208Z,21.95
2023-12-30T04:28:09.310Z,21.95
2023-12-30T04:29:09.358Z,21.95
2023-12-30T04:30:09.505Z,21.95
2023-12-30T04:31:09.581Z,21.94
2023-12-30T04:32:09.550Z,21.95
2023-12-30T04:33:09.705Z,21.95
2023-12-30T04:34:09.858Z,21.95
2023-12-30T04:35:09.759Z,21.95
2023-12-30T04:36:09.805Z,21.95
2023-12-30T04:37:09.909Z,21.95
2023-12-30T04:38:09.976Z,21.95
2023-12-30T04:39:10.039Z,21.95
2023-12-30T04:40:10.126Z,21.95
2023-12-30T04:41:10.128Z,21.95
2023-12-30T04:42:10.197Z,21.95
2023-12-30T04:43:10.287Z,21.94
2023-12-30T04:44:10.325Z,21.95
2023-12-30T04:45:10.404Z,21.95
2023-12-30T04:46:10.493Z,21.95
2023-12-30T04:47:10.536Z,21.94
2023-12-30T04:48:10.639Z,21.94
2023-12-30T04:49:10.744Z,21.95
2023-12-30T04:50:10.748Z,21.94
2023-12-30T04:51:10.802Z,21.94
2023-12-30T04:52:10.913Z,21.94
2023-12-30T04:53:10.953Z,21.95
2023-12-30T04:54:11.025Z,21.95
2023-12-30T04:55:11.176Z,21.95
2023-12-30T04:56:18.478Z,21.92
2023-12-30T04:57:18.512Z,21.94
2023-12-30T04:58:18.641Z,21.94
2023-12-30T04:59:18.503Z,21.93
2023-12-30T05:00:20.986Z,21.94
2023-12-30T05:01:18.567Z,21.94
2023-12-30T05:02:18.502Z,21.93
2023-12-30T05:03:18.548Z,21.94
2023-12-30T05:04:18.531Z,21.94
2023-12-30T05:05:18.505Z,21.95
2023-12-30T05:06:18.509Z,21.95
2023-12-30T05:07:18.530Z,21.95
2023-12-30T05:08:18.489Z,21.94
2023-12-30T05:09:18.526Z,21.94
2023-12-30T05:10:18.583Z,21.95
2023-12-30T05:11:18.505Z,21.94
2023-12-30T05:12:18.493Z,21.95
2023-12-30T05:13:18.616Z,21.95
2023-12-30T05:14:18.514Z,21.95
2023-12-30T05:15:18.493Z,21.94
2023-12-30T05:16:18.533Z,21.94
2023-12-30T05:17:18.504Z,21.94
2023-12-30T05:18:18.633Z,21.94
2023-12-30T05:19:18.840Z,21.94
2023-12-30T05:20:18.720Z,21.94
2023-12-30T05:21:18.760Z,21.94
2023-12-30T05:22:18.887Z,21.94
2023-12-30T05:23:18.910Z,21.95
2023-12-30T05:24:18.996Z,21.94
2023-12-30T05:25:19.052Z,21.94
2023-12-30T05:26:19.112Z,21.94
2023-12-30T05:27:19.192Z,21.94
2023-12-30T05:28:19.283Z,21.94
2023-12-30T05:29:19.303Z,21.94
2023-12-30T05:30:19.422Z,21.94
2023-12-30T05:31:19.523Z,21.94
2023-12-30T05:32:19.513Z,21.93
2023-12-30T05:33:19.714Z,21.94
2023-12-30T05:34:19.709Z,21.94
2023-12-30T05:35:19.724Z,21.94
2023-12-30T05:36:19.790Z,21.94
2023-12-30T05:37:19.897Z,21.94
2023-12-30T05:38:19.905Z,21.93
2023-12-30T05:39:19.995Z,21.93
2023-12-30T05:40:20.125Z,21.93
2023-12-30T05:41:20.138Z,21.93
2023-12-30T05:42:20.191Z,21.94
2023-12-30T05:43:20.355Z,21.93
2023-12-30T05:44:20.329Z,21.93
2023-12-30T05:45:20.396Z,21.93
2023-12-30T05:46:20.524Z,21.93
2023-12-30T05:47:20.556Z,21.93
2023-12-30T05:48:20.742Z,21.93
2023-12-30T05:49:20.772Z,21.93
2023-12-30T05:50:20.732Z,21.93
2023-12-30T05:51:23.104Z,21.93
2023-12-30T05:52:20.815Z,21.93
2023-12-30T05:53:20.798Z,21.93
2023-12-30T05:54:20.796Z,21.94
2023-12-30T05:55:20.820Z,21.93
2023-12-30T05:56:20.794Z,21.93
2023-12-30T05:57:20.789Z,21.94
2023-12-30T05:58:20.836Z,21.93
2023-12-30T05:59:20.839Z,21.93
2023-12-30T06:00:20.806Z,21.93
2023-12-30T06:01:20.880Z,21.93
2023-12-30T06:02:20.793Z,21.93
2023-12-30T06:03:20.824Z,21.93
2023-12-30T06:04:20.878Z,21.94
2023-12-30T06:05:20.805Z,21.94
2023-12-30T06:06:20.869Z,21.94
2023-12-30T06:07:20.878Z,21.93
2023-12-30T06:08:20.812Z,21.94
2023-12-30T06:09:20.821Z,21.93
2023-12-30T06:10:20.876Z,21.93
2023-12-30T06:11:20.825Z,21.93
2023-12-30T06:12:20.832Z,21.93
2023-12-30T06:13:20.853Z,21.94
2023-12-30T06:14:20.836Z,21.93
2023-12-30T06:15:21.154Z,21.93
2023-12-30T06:16:20.960Z,21.93
2023-12-30T06:17:20.972Z,21.94
2023-12-30T06:18:21.095Z,21.93
2023-12-30T06:19:21.241Z,21.93
2023-12-30T06:20:21.181Z,21.93
2023-12-30T06:21:21.265Z,21.93
2023-12-30T06:22:21.345Z,21.93
2023-12-30T06:23:21.392Z,21.93
2023-12-30T06:24:21.506Z,21.93
2023-12-30T06:25:21.584Z,21.93
2023-12-30T06:26:21.602Z,21.93
2023-12-30T06:27:21.666Z,21.93
2023-12-30T06:28:21.764Z,21.93
2023-12-30T06:29:21.863Z,21.94
2023-12-30T06:30:21.914Z,21.93
2023-12-30T06:31:22.047Z,21.94
2023-12-30T06:32:22.037Z,21.93
2023-12-30T06:33:22.212Z,21.93
2023-12-30T06:34:22.210Z,21.94
2023-12-30T06:35:22.230Z,21.93
2023-12-30T06:36:22.299Z,21.93
2023-12-30T06:37:22.398Z,21.93
2023-12-30T06:38:22.435Z,21.94
2023-12-30T06:39:22.506Z,21.92
2023-12-30T06:40:22.668Z,21.93
2023-12-30T06:41:22.644Z,21.94
2023-12-30T06:42:22.721Z,21.93
2023-12-30T06:43:22.801Z,21.93
2023-12-30T06:44:22.849Z,21.93
2023-12-30T06:45:22.889Z,21.93
2023-12-30T06:46:22.987Z,21.93
2023-12-30T06:47:23.052Z,21.93
2023-12-30T06:48:23.242Z,21.93
2023-12-30T06:49:23.250Z,21.93
2023-12-30T06:50:23.231Z,21.92
2023-12-30T06:51:23.303Z,21.93
2023-12-30T06:52:23.377Z,21.93
2023-12-30T06:53:23.487Z,21.93
2023-12-30T06:54:23.533Z,21.93
2023-12-30T06:55:28.908Z,21.93
2023-12-30T06:56:24.671Z,21.93
2023-12-30T06:57:23.591Z,21.92
2023-12-30T06:58:23.597Z,21.92
2023-12-30T06:59:23.609Z,21.93
2023-12-30T07:00:23.639Z,21.93
2023-12-30T07:01:23.708Z,21.93
2023-12-30T07:02:23.618Z,21.92
2023-12-30T07:03:23.625Z,21.92
2023-12-30T07:04:23.716Z,21.93
2023-12-30T07:05:23.777Z,21.93
2023-12-30T07:06:23.799Z,21.92
2023-12-30T07:07:23.905Z,21.93
2023-12-30T07:08:23.944Z,21.93
2023-12-30T07:09:24.004Z,21.93
2023-12-30T07:10:24.115Z,21.92
2023-12-30T07:11:24.148Z,21.93
2023-12-30T07:12:24.226Z,21.92
2023-12-30T07:13:24.331Z,21.92
2023-12-30T07:14:24.354Z,21.93
2023-12-30T07:15:24.443Z,21.93
2023-12-30T07:16:24.556Z,21.93
2023-12-30T07:17:24.591Z,21.93
2023-12-30T07:18:24.759Z,21.93
2023-12-30T07:19:24.855Z,21.92
2023-12-30T07:20:24.813Z,21.93
2023-12-30T07:21:24.873Z,21.93
2023-12-30T07:22:24.985Z,21.93
2023-12-30T07:23:25.015Z,21.93
2023-12-30T07:24:25.086Z,21.92
2023-12-30T07:25:25.226Z,21.93
2023-12-30T07:26:25.226Z,21.93
2023-12-30T07:27:25.303Z,21.93
2023-12-30T07:28:25.459Z,21.93
2023-12-30T07:29:25.466Z,21.93
2023-12-30T07:30:25.556Z,21.93
2023-12-30T07:31:25.613Z,21.93
2023-12-30T07:32:25.712Z,21.94
2023-12-30T07:33:25.873Z,21.93
2023-12-30T07:34:25.957Z,21.94
2023-12-30T07:35:25.903Z,21.93
2023-12-30T07:36:25.985Z,21.93
2023-12-30T07:37:26.123Z,21.93
2023-12-30T07:38:26.111Z,21.93
2023-12-30T07:39:26.217Z,21.93
2023-12-30T07:40:26.305Z,21.93
2023-12-30T07:41:26.331Z,21.94
2023-12-30T07:42:26.392Z,21.93
2023-12-30T07:43:26.472Z,21.93
2023-12-30T07:44:26.532Z,21.93
2023-12-30T07:45:26.610Z,21.93
2023-12-30T07:46:26.803Z,21.93
2023-12-30T07:47:26.784Z,21.93
2023-12-30T07:48:26.848Z,21.94
2023-12-30T07:49:26.952Z,21.93
2023-12-30T07:50:26.959Z,21.94
2023-12-30T07:51:27.042Z,21.94
2023-12-30T07:52:27.105Z,21.94
2023-12-30T07:53:27.204Z,21.94
2023-12-30T07:54:27.260Z,21.93
2023-12-30T07:55:27.355Z,21.94
2023-12-30T07:56:27.395Z,21.94
2023-12-30T07:57:27.461Z,21.93
2023-12-30T07:58:27.676Z,21.94
2023-12-30T07:59:27.610Z,21.94
2023-12-30T08:00:27.786Z,21.95
2023-12-30T08:01:27.804Z,21.95
2023-12-30T08:02:27.905Z,21.95
2023-12-30T08:03:27.913Z,21.95
2023-12-30T08:04:28.000Z,21.96
2023-12-30T08:05:28.035Z,21.95
2023-12-30T08:06:28.071Z,21.95
2023-12-30T08:07:28.167Z,21.95
2023-12-30T08:08:28.211Z,21.96
2023-12-30T08:09:28.304Z,21.96
2023-12-30T08:10:28.440Z,21.96
2023-12-30T08:11:28.446Z,21.96
2023-12-30T08:12:28.507Z,21.96
2023-12-30T08:13:28.637Z,21.97
2023-12-30T08:14:28.669Z,21.96
2023-12-30T08:15:28.714Z,21.97
2023-12-30T08:16:28.849Z,21.97
2023-12-30T08:17:28.930Z,21.97
2023-12-30T08:18:29.054Z,21.97
2023-12-30T08:19:29.066Z,21.97
2023-12-30T08:20:29.057Z,21.98
2023-12-30T08:21:29.164Z,21.98
2023-12-30T08:22:29.193Z,21.97
2023-12-30T08:23:29.236Z,21.97
2023-12-30T08:24:29.386Z,21.97
2023-12-30T08:25:29.396Z,21.98
2023-12-30T08:26:29.407Z,21.98
2023-12-30T08:27:29.472Z,21.97
2023-12-30T08:28:29.585Z,21.98
2023-12-30T08:29:29.650Z,21.98
2023-12-30T08:30:29.694Z,21.98
2023-12-30T08:31:29.792Z,21.97
2023-12-30T08:32:29.803Z,21.97
2023-12-30T08:33:29.925Z,21.98
2023-12-30T08:34:29.953Z,21.98
2023-12-30T08:35:29.980Z,21.98
2023-12-30T08:36:30.034Z,21.98
2023-12-30T08:37:30.191Z,21.98
2023-12-30T08:38:30.173Z,21.98
2023-12-30T08:39:30.273Z,21.98
2023-12-30T08:40:31.744Z,21.99
2023-12-30T08:41:30.316Z,21.98
2023-12-30T08:42:30.327Z,21.98
2023-12-30T08:43:30.438Z,21.98
2023-12-30T08:44:30.350Z,21.98
2023-12-30T08:45:30.343Z,21.99
2023-12-30T08:46:30.407Z,21.98
2023-12-30T08:47:30.374Z,21.98
2023-12-30T08:48:30.481Z,21.98
2023-12-30T08:49:30.393Z,21.98
2023-12-30T08:50:30.331Z,21.99
2023-12-30T08:51:30.334Z,21.98
2023-12-30T08:52:30.402Z,21.98
2023-12-30T08:53:30.345Z,21.99
2023-12-30T08:54:30.340Z,21.99
2023-12-30T08:55:30.365Z,21.98
2023-12-30T08:56:30.354Z,21.99
2023-12-30T08:57:30.353Z,21.99
2023-12-30T08:58:30.423Z,21.99
2023-12-30T08:59:30.335Z,22.00
2023-12-30T09:00:30.404Z,21.99
2023-12-30T09:01:30.660Z,21.99
2023-12-30T09:02:30.366Z,21.99
2023-12-30T09:03:30.396Z,21.99
2023-12-30T09:04:30.429Z,21.99
2023-12-30T09:05:30.391Z,21.99
2023-12-30T09:06:30.355Z,21.99
2023-12-30T09:07:30.394Z,21.99
2023-12-30T09:08:30.393Z,22.00
2023-12-30T09:09:30.396Z,21.99
2023-12-30T09:10:30.444Z,21.99
2023-12-30T09:11:30.360Z,22.00
2023-12-30T09:12:30.396Z,22.00
2023-12-30T09:13:30.389Z,22.00
2023-12-30T09:14:30.368Z,22.00
2023-12-30T09:15:30.395Z,22.00
2023-12-30T09:16:30.473Z,22.00
2023-12-30T09:17:30.462Z,22.00
2023-12-30T09:18:30.569Z,22.00
2023-12-30T09:19:30.663Z,22.00
2023-12-30T09:20:30.523Z,22.00
2023-12-30T09:21:30.590Z,22.01
2023-12-30T09:22:30.697Z,22.01
2023-12-30T09:23:30.752Z,22.00
2023-12-30T09:24:30.830Z,22.01
2023-12-30T09:25:30.966Z,22.01
2023-12-30T09:26:30.959Z,22.01
2023-12-30T09:27:31.005Z,22.01
2023-12-30T09:28:31.113Z,22.01
2023-12-30T09:29:31.221Z,22.01
2023-12-30T09:30:31.274Z,22.01
2023-12-30T09:31:31.314Z,22.02
2023-12-30T09:32:31.362Z,22.02
2023-12-30T09:33:31.626Z,22.01
2023-12-30T09:34:41.140Z,22.02
2023-12-30T09:35:32.664Z,22.02
2023-12-30T09:36:31.530Z,22.02
2023-12-30T09:37:31.560Z,22.02
2023-12-30T09:38:31.497Z,22.03
2023-12-30T09:39:31.477Z,22.02
2023-12-30T09:40:31.546Z,22.02
2023-12-30T09:41:31.488Z,22.03
2023-12-30T09:42:31.500Z,22.03
2023-12-30T09:43:31.539Z,22.03
2023-12-30T09:44:31.564Z,22.03
2023-12-30T09:45:31.640Z,22.03
2023-12-30T09:46:31.768Z,22.03
2023-12-30T09:47:31.914Z,22.04
2023-12-30T09:48:32.064Z,22.04
2023-12-30T09:49:31.864Z,22.04
2023-12-30T09:50:31.949Z,22.03
2023-12-30T09:51:32.000Z,22.04
2023-12-30T09:52:32.082Z,22.04
2023-12-30T09:53:32.111Z,22.04
2023-12-30T09:54:42.255Z,22.05
2023-12-30T09:55:33.220Z,22.03
2023-12-30T09:56:32.183Z,22.04
2023-12-30T09:57:32.192Z,22.04
2023-12-30T09:58:32.201Z,22.05
2023-12-30T09:59:32.196Z,22.05
2023-12-30T10:00:32.201Z,22.05
2023-12-30T10:01:32.368Z,22.05
2023-12-30T10:02:32.196Z,22.05
2023-12-30T10:03:32.353Z,22.05
2023-12-30T10:04:32.377Z,22.05
2023-12-30T10:05:32.386Z,22.06
2023-12-30T10:06:32.388Z,22.05
2023-12-30T10:07:32.468Z,22.05
2023-12-30T10:08:32.537Z,22.05
2023-12-30T10:09:32.604Z,22.05
2023-12-30T10:10:32.697Z,22.06
2023-12-30T10:11:32.688Z,22.06
2023-12-30T10:12:32.762Z,22.07
2023-12-30T10:13:32.845Z,22.06
2023-12-30T10:14:32.996Z,22.05
2023-12-30T10:15:32.937Z,22.06
2023-12-30T10:16:33.045Z,22.06
2023-12-30T10:17:33.124Z,22.06
2023-12-30T10:18:33.250Z,22.07
2023-12-30T10:19:33.216Z,22.06
2023-12-30T10:20:33.223Z,22.07
2023-12-30T10:21:33.294Z,22.06
2023-12-30T10:22:33.470Z,22.07
2023-12-30T10:23:33.433Z,22.07
2023-12-30T10:24:33.522Z,22.07
2023-12-30T10:25:33.654Z,22.07
2023-12-30T10:26:33.598Z,22.07
2023-12-30T10:27:33.653Z,22.07
2023-12-30T10:28:33.743Z,22.07
2023-12-30T10:29:43.166Z,22.06
2023-12-30T10:30:34.821Z,22.07
2023-12-30T10:31:33.814Z,22.08
2023-12-30T10:32:33.824Z,22.07
2023-12-30T10:33:33.816Z,22.07
2023-12-30T10:34:33.816Z,22.08
2023-12-30T10:35:33.767Z,22.07
2023-12-30T10:36:33.794Z,22.07
2023-12-30T10:37:33.824Z,22.08
2023-12-30T10:38:33.780Z,22.07
2023-12-30T10:39:33.836Z,22.07
2023-12-30T10:40:33.901Z,22.08
2023-12-30T10:41:34.012Z,22.08
2023-12-30T10:42:33.978Z,22.08
2023-12-30T10:43:34.107Z,22.08
2023-12-30T10:44:34.137Z,22.09
2023-12-30T10:45:34.134Z,22.09
2023-12-30T10:46:34.319Z,22.09
2023-12-30T10:47:34.276Z,22.08
2023-12-30T10:48:34.345Z,22.09
2023-12-30T10:49:34.528Z,22.08
2023-12-30T10:50:34.477Z,22.09
2023-12-30T10:51:34.475Z,22.09
2023-12-30T10:52:34.565Z,22.09
2023-12-30T10:53:34.566Z,22.09
2023-12-30T10:54:34.652Z,22.09
2023-12-30T10:55:34.756Z,22.09
2023-12-30T10:56:34.732Z,22.10
2023-12-30T10:57:34.797Z,22.09
2023-12-30T10:58:34.955Z,22.10
2023-12-30T10:59:34.965Z,22.09
2023-12-30T11:00:34.985Z,22.10
2023-12-30T11:01:35.156Z,22.10
2023-12-30T11:02:35.148Z,22.10
2023-12-30T11:03:35.217Z,22.10
2023-12-30T11:04:35.225Z,22.09
2023-12-30T11:05:35.306Z,22.11
2023-12-30T11:06:35.341Z,22.10
2023-12-30T11:07:35.393Z,22.10
2023-12-30T11:08:35.370Z,22.10
2023-12-30T11:09:35.465Z,22.11
2023-12-30T11:10:35.520Z,22.11
2023-12-30T11:11:35.539Z,22.11
2023-12-30T11:12:35.573Z,22.10
2023-12-30T11:13:35.657Z,22.11
2023-12-30T11:14:35.708Z,22.11
2023-12-30T11:15:35.756Z,22.11
2023-12-30T11:16:35.844Z,22.11
2023-12-30T11:17:35.864Z,22.11
2023-12-30T11:18:36.000Z,22.11
2023-12-30T11:19:36.091Z,22.11
2023-12-30T11:20:35.998Z,22.11
2023-12-30T11:21:36.110Z,22.11
2023-12-30T11:22:36.172Z,22.11
2023-12-30T11:23:36.166Z,22.12
2023-12-30T11:24:36.284Z,22.12
2023-12-30T11:25:36.339Z,22.11
2023-12-30T11:26:36.351Z,22.11
2023-12-30T11:27:36.383Z,22.11
2023-12-30T11:28:36.489Z,22.12
2023-12-30T11:29:36.517Z,22.11
2023-12-30T11:30:36.568Z,22.12
2023-12-30T11:31:36.662Z,22.11
2023-12-30T11:32:36.696Z,22.12
2023-12-30T11:33:36.821Z,22.11
2023-12-30T11:34:36.913Z,22.12
2023-12-30T11:35:36.856Z,22.13
2023-12-30T11:36:36.855Z,22.12
2023-12-30T11:37:37.077Z,22.12
2023-12-30T11:38:36.954Z,22.12
2023-12-30T11:39:37.048Z,22.12
2023-12-30T11:40:37.205Z,22.12
2023-12-30T11:41:37.179Z,22.12
2023-12-30T11:42:45.246Z,22.12
2023-12-30T11:43:38.246Z,22.11
2023-12-30T11:44:37.247Z,22.12
2023-12-30T11:45:37.195Z,22.12
2023-12-30T11:46:37.408Z,22.12
2023-12-30T11:47:37.193Z,22.12
2023-12-30T11:48:37.226Z,22.12
2023-12-30T11:49:37.272Z,22.12
2023-12-30T11:50:37.218Z,22.12
2023-12-30T11:51:37.204Z,22.11
2023-12-30T11:52:37.351Z,22.11
2023-12-30T11:53:37.236Z,22.11
2023-12-30T11:54:37.436Z,22.12
2023-12-30T11:55:37.550Z,22.11
2023-12-30T11:56:37.386Z,22.11
2023-12-30T11:57:37.449Z,22.11
2023-12-30T11:58:37.546Z,22.11
2023-12-30T11:59:37.580Z,22.11
2023-12-30T12:00:37.733Z,22.12
2023-12-30T12:01:37.757Z,22.11
2023-12-30T12:02:37.701Z,22.11
2023-12-30T12:03:37.778Z,22.11
2023-12-30T12:04:38.093Z,22.11
2023-12-30T12:05:37.874Z,22.11
2023-12-30T12:06:37.991Z,22.11
2023-12-30T12:07:37.988Z,22.11
2023-12-30T12:08:37.993Z,22.11
2023-12-30T12:09:38.101Z,22.11
2023-12-30T12:10:38.171Z,22.10
2023-12-30T12:11:38.189Z,22.11
2023-12-30T12:12:38.210Z,22.10
2023-12-30T12:13:38.331Z,22.11
2023-12-30T12:14:38.864Z,22.11
2023-12-30T12:15:38.410Z,22.11
2023-12-30T12:16:38.518Z,22.11
2023-12-30T12:17:38.614Z,22.10
2023-12-30T12:18:38.634Z,22.11
2023-12-30T12:19:38.731Z,22.11
2023-12-30T12:20:38.675Z,22.11
2023-12-30T12:21:38.712Z,22.11
2023-12-30T12:22:38.893Z,22.11
2023-12-30T12:23:38.805Z,22.10
2023-12-30T12:24:38.872Z,22.11
2023-12-30T12:25:38.946Z,22.11
2023-12-30T12:26:38.977Z,22.11
2023-12-30T12:27:39.021Z,22.11
2023-12-30T12:28:39.111Z,22.11
2023-12-30T12:29:39.139Z,22.11
2023-12-30T12:30:39.247Z,22.11
2023-12-30T12:31:39.266Z,22.10
2023-12-30T12:32:39.363Z,22.11
2023-12-30T12:33:39.448Z,22.11
2023-12-30T12:34:39.499Z,22.10
2023-12-30T12:35:39.500Z,22.11
2023-12-30T12:36:39.502Z,22.11
2023-12-30T12:37:39.758Z,22.10
2023-12-30T12:38:39.625Z,22.10
2023-12-30T12:39:39.705Z,22.10
2023-12-30T12:40:39.902Z,22.11
2023-12-30T12:41:39.775Z,22.11
2023-12-30T12:42:39.859Z,22.10
2023-12-30T12:43:39.937Z,22.10
2023-12-30T12:44:40.015Z,22.11
2023-12-30T12:45:40.040Z,22.11
2023-12-30T12:46:40.177Z,22.10
2023-12-30T12:47:40.191Z,22.11
2023-12-30T12:48:40.406Z,22.11
2023-12-30T12:49:40.261Z,22.10
2023-12-30T12:50:40.277Z,22.11
2023-12-30T12:51:40.708Z,22.11
2023-12-30T12:52:40.457Z,22.11
2023-12-30T12:53:40.468Z,22.11